Time;durP1;ratioP1;P1;durP2;ratioP2;P2;SDS_P1;SDS_P2;PMS_P1;PMS_P2;Temp;Humidity;BMP_temperature;BMP_pressure;BME280_temperature;BME280_humidity;BME280_pressure;Samples;Min_cycle;Max_cycle;Signal;HPM_P1;HPM_P2
2024/01/05 00:01:45;;;;;;;26.00;13.00;;;;;;;6.85;67.24;99214.43;123970;1099;104304;-77
2024/01/05 00:04:18;;;;;;;27.33;13.30;;;;;;;6.86;67.29;99207.48;124281;1099;104258;-76
2024/01/05 00:06:49;;;;;;;26.67;13.20;;;;;;;6.83;67.19;99216.12;123892;1099;104360;-77
2024/01/05 00:09:20;;;;;;;26.23;12.67;;;;;;;6.82;67.21;99219.55;123759;1099;104258;-77
2024/01/05 00:11:53;;;;;;;25.00;13.23;;;;;;;6.82;67.56;99214.34;123841;1099;104299;-77
2024/01/05 00:14:24;;;;;;;28.03;13.40;;;;;;;6.84;67.54;99223.98;123755;1099;104305;-77
2024/01/05 00:16:58;;;;;;;25.43;12.50;;;;;;;6.87;67.74;99227.52;123651;1099;104329;-77
2024/01/05 00:19:30;;;;;;;25.70;12.37;;;;;;;6.90;67.76;99240.64;123681;1099;104251;-77
2024/01/05 00:22:01;;;;;;;26.53;13.10;;;;;;;6.91;67.63;99229.39;123947;1099;104248;-77
2024/01/05 00:24:32;;;;;;;26.47;12.93;;;;;;;6.93;67.33;99233.78;123852;1099;104399;-77
2024/01/05 00:27:04;;;;;;;26.70;12.87;;;;;;;6.97;67.59;99240.00;123962;1099;104291;-77
2024/01/05 00:29:35;;;;;;;26.10;12.53;;;;;;;6.96;67.74;99246.92;123661;1099;104431;-77
2024/01/05 00:32:07;;;;;;;26.73;13.10;;;;;;;6.98;67.68;99240.05;123671;1099;104245;-77
2024/01/05 00:34:38;;;;;;;26.07;13.17;;;;;;;7.01;68.00;99244.45;123737;1099;104364;-78
2024/01/05 00:37:09;;;;;;;28.13;13.27;;;;;;;7.04;67.75;99246.27;123713;1099;104273;-77
2024/01/05 00:39:41;;;;;;;28.20;13.95;;;;;;;7.06;67.53;99249.80;123691;1099;104376;-77
2024/01/05 00:42:12;;;;;;;25.47;13.50;;;;;;;7.08;67.73;99259.45;123888;1099;104358;-77
2024/01/05 00:44:43;;;;;;;29.77;13.83;;;;;;;7.07;67.83;99249.84;123971;1099;104241;-77
2024/01/05 00:47:15;;;;;;;27.13;13.30;;;;;;;7.09;67.82;99252.50;123725;1099;104358;-79
2024/01/05 00:49:46;;;;;;;29.20;13.00;;;;;;;7.10;67.82;99255.16;123917;1099;104341;-78
2024/01/05 00:52:17;;;;;;;29.17;14.17;;;;;;;7.10;67.78;99257.77;123903;1099;104419;-76
2024/01/05 00:54:48;;;;;;;28.50;14.50;;;;;;;7.09;68.14;99248.19;123744;1099;104344;-76
2024/01/05 00:57:20;;;;;;;25.67;13.80;;;;;;;7.04;67.97;99254.09;123908;1099;104226;-78
2024/01/05 00:59:51;;;;;;;28.93;14.07;;;;;;;6.99;67.61;99256.57;123823;1099;104421;-79
2024/01/05 01:02:22;;;;;;;29.40;14.73;;;;;;;6.96;67.95;99262.56;123783;1099;104223;-77
2024/01/05 01:04:55;;;;;;;30.10;15.43;;;;;;;6.91;68.00;99256.34;123769;1099;104246;-77
2024/01/05 01:07:26;;;;;;;29.10;15.07;;;;;;;6.87;67.64;99261.41;123438;1099;104380;-77
2024/01/05 01:09:58;;;;;;;27.73;15.07;;;;;;;6.81;68.20;99263.00;123640;1099;104294;-77
2024/01/05 01:12:29;;;;;;;30.03;15.53;;;;;;;6.76;67.96;99272.41;123786;1099;104644;-77
2024/01/05 01:15:00;;;;;;;31.67;15.80;;;;;;;6.73;67.77;99263.59;123699;1099;104194;-77
2024/01/05 01:17:31;;;;;;;35.27;16.00;;;;;;;6.68;68.27;99271.27;123735;1099;104361;-77
2024/01/05 01:20:03;;;;;;;33.33;16.43;;;;;;;6.64;68.30;99274.63;123671;1099;104501;-77
2024/01/05 01:22:34;;;;;;;35.17;16.13;;;;;;;6.58;68.23;99274.44;123673;1099;104321;-77
2024/01/05 01:25:06;;;;;;;36.97;18.00;;;;;;;6.51;68.20;99270.73;123844;1099;104252;-77
2024/01/05 01:27:37;;;;;;;34.50;16.87;;;;;;;6.45;68.13;99273.13;123791;1099;104220;-77
2024/01/05 01:30:10;;;;;;;31.17;15.90;;;;;;;6.41;67.96;99285.19;123895;1099;104290;-77
2024/01/05 01:32:42;;;;;;;35.23;16.57;;;;;;;6.40;68.30;99286.01;123716;1098;104300;-77
2024/01/05 01:35:13;;;;;;;35.85;16.30;;;;;;;6.38;68.12;99295.51;123752;1099;104353;-77
2024/01/05 01:37:44;;;;;;;31.77;15.77;;;;;;;6.34;68.08;99298.83;123800;1099;104211;-78
2024/01/05 01:40:16;;;;;;;36.20;17.53;;;;;;;6.32;68.20;99307.45;123801;1099;104256;-77
2024/01/05 01:42:49;;;;;;;33.17;16.20;;;;;;;6.27;68.33;99302.09;123803;1099;104265;-77
2024/01/05 01:45:20;;;;;;;31.02;15.55;;;;;;;6.24;68.60;99307.20;123783;1099;104242;-77
2024/01/05 01:47:53;;;;;;;31.37;15.67;;;;;;;6.20;68.32;99303.61;123674;1099;104723;-77
2024/01/05 01:50:25;;;;;;;30.50;16.23;;;;;;;6.17;68.26;99313.02;123609;1099;104373;-77
2024/01/05 01:52:56;;;;;;;28.93;16.00;;;;;;;6.12;68.19;99305.05;123764;1099;104685;-77
2024/01/05 01:55:27;;;;;;;32.73;16.97;;;;;;;6.08;68.36;99309.27;123623;1099;104365;-78
2024/01/05 01:57:59;;;;;;;33.37;15.83;;;;;;;6.05;68.38;99306.56;123646;1099;104385;-77
2024/01/05 02:00:30;;;;;;;31.10;15.70;;;;;;;6.02;68.42;99303.85;123375;1099;104265;-77
2024/01/05 02:03:02;;;;;;;27.43;14.77;;;;;;;6.01;68.49;99314.22;123614;1099;104710;-77
2024/01/05 02:05:34;;;;;;;26.83;13.33;;;;;;;5.98;68.44;99309.77;123571;1099;104270;-77
2024/01/05 02:08:06;;;;;;;28.50;14.80;;;;;;;5.99;68.61;99316.77;123578;1098;104268;-78
2024/01/05 02:10:40;;;;;;;28.73;13.63;;;;;;;6.00;68.55;99321.16;123718;1099;104273;-78
2024/01/05 02:13:12;;;;;;;29.35;14.65;;;;;;;5.98;68.55;99314.11;123620;1099;104348;-78
2024/01/05 02:15:43;;;;;;;28.57;14.20;;;;;;;5.96;68.76;99328.77;123586;1099;104309;-77
2024/01/05 02:18:15;;;;;;;28.43;14.00;;;;;;;5.94;68.84;99328.71;123651;1099;104245;-77
2024/01/05 02:20:47;;;;;;;25.65;13.70;;;;;;;5.91;68.92;99331.20;123827;1099;104339;-77
2024/01/05 02:23:26;;;;;;;27.30;14.20;;;;;;;5.88;68.89;99337.18;123664;1099;105685;-77
2024/01/05 02:25:58;;;;;;;27.97;14.60;;;;;;;5.87;68.98;99339.73;123813;1099;104271;-78
2024/01/05 02:28:29;;;;;;;27.40;13.70;;;;;;;5.80;68.65;99338.63;123573;1099;104354;-78
2024/01/05 02:31:00;;;;;;;30.73;14.60;;;;;;;5.67;68.78;99339.91;123662;1099;104674;-78
2024/01/05 02:33:31;;;;;;;32.80;15.90;;;;;;;5.64;68.77;99339.80;123689;1099;104553;-77
2024/01/05 02:36:03;;;;;;;29.20;14.80;;;;;;;5.62;69.09;99349.25;123546;1099;104358;-77
2024/01/05 02:38:35;;;;;;;28.60;14.93;;;;;;;5.59;69.03;99346.53;123603;1099;104303;-77
2024/01/05 02:41:08;;;;;;;35.30;16.43;;;;;;;5.58;69.25;99337.84;123604;1099;104752;-77
2024/01/05 02:43:40;;;;;;;57.97;24.80;;;;;;;5.61;69.35;99343.98;123693;1098;104347;-77
2024/01/05 02:46:13;;;;;;;60.00;26.87;;;;;;;5.62;69.26;99337.95;123613;1099;104626;-77
2024/01/05 02:48:45;;;;;;;63.08;28.25;;;;;;;5.55;68.97;99339.45;123606;1099;104345;-77
2024/01/05 02:51:17;;;;;;;56.67;26.20;;;;;;;5.46;69.17;99337.39;123588;1099;104743;-77
2024/01/05 02:53:48;;;;;;;60.13;24.73;;;;;;;5.43;69.08;99331.19;123663;1099;104680;-77
2024/01/05 02:56:23;;;;;;;49.30;21.43;;;;;;;5.40;68.89;99338.03;123632;1099;104197;-76
2024/01/05 02:58:55;;;;;;;35.70;18.35;;;;;;;5.39;69.30;99340.58;123607;1099;104408;-77
2024/01/05 03:01:26;;;;;;;35.27;17.03;;;;;;;5.36;69.37;99345.66;123595;1099;104399;-77
2024/01/05 03:04:00;;;;;;;33.90;16.80;;;;;;;5.35;69.72;99346.52;123655;1099;104328;-77
2024/01/05 03:06:31;;;;;;;31.20;16.30;;;;;;;5.34;69.24;99348.20;123675;1099;104629;-77
2024/01/05 03:09:05;;;;;;;32.40;16.40;;;;;;;5.36;69.36;99356.98;123681;1099;104271;-76
2024/01/05 03:11:37;;;;;;;34.20;15.70;;;;;;;5.35;69.44;99359.52;123567;1099;104348;-77
2024/01/05 03:14:08;;;;;;;32.13;15.37;;;;;;;5.32;69.73;99362.88;123667;1098;104316;-77
2024/01/05 03:16:39;;;;;;;32.17;15.77;;;;;;;5.33;69.77;99363.75;123730;1099;104274;-77
2024/01/05 03:19:11;;;;;;;34.90;17.35;;;;;;;5.32;69.46;99357.67;123636;1097;104374;-78
2024/01/05 03:21:42;;;;;;;33.50;15.65;;;;;;;5.31;69.80;99352.41;123578;1098;104373;-77
2024/01/05 03:24:15;;;;;;;33.47;16.57;;;;;;;5.31;69.49;99362.82;123645;1099;104338;-78
2024/01/05 03:26:46;;;;;;;32.30;16.07;;;;;;;5.30;69.83;99361.03;123641;1099;104306;-77
2024/01/05 03:29:18;;;;;;;33.07;15.93;;;;;;;5.28;69.80;99373.98;123595;1099;104328;-77
2024/01/05 03:31:49;;;;;;;35.33;16.47;;;;;;;5.22;69.77;99369.45;123555;1099;104245;-77
2024/01/05 03:34:20;;;;;;;31.83;16.17;;;;;;;5.18;69.82;99375.34;123599;1099;104339;-77
2024/01/05 03:36:51;;;;;;;32.10;16.57;;;;;;;5.16;69.91;99377.01;123628;1099;104430;-77
2024/01/05 03:39:23;;;;;;;29.35;15.35;;;;;;;5.16;70.02;99383.94;123587;1099;104325;-77
2024/01/05 03:41:54;;;;;;;32.40;15.47;;;;;;;5.13;70.05;99376.02;123714;1099;104268;-77
2024/01/05 03:44:25;;;;;;;33.40;16.20;;;;;;;5.13;70.02;99379.48;123702;1099;105668;-77
2024/01/05 03:46:56;;;;;;;35.97;16.67;;;;;;;5.11;70.03;99386.36;123625;1099;104255;-77
2024/01/05 03:49:27;;;;;;;33.97;16.47;;;;;;;5.10;70.04;99389.77;123233;1099;104418;-77
2024/01/05 03:51:59;;;;;;;31.87;14.87;;;;;;;5.10;70.08;99389.77;123541;1099;104492;-77
2024/01/05 03:54:30;;;;;;;33.30;16.03;;;;;;;5.08;69.89;99395.72;123781;1099;104342;-78
2024/01/05 03:57:01;;;;;;;34.33;16.67;;;;;;;5.03;70.16;99401.65;123580;1099;104316;-77
2024/01/05 03:59:32;;;;;;;34.00;15.90;;;;;;;5.05;70.26;99393.91;123707;1099;104320;-78
2024/01/05 04:02:04;;;;;;;28.20;15.53;;;;;;;5.10;70.48;99388.89;123715;1099;104406;-78
2024/01/05 04:04:35;;;;;;;33.40;15.50;;;;;;;5.12;70.30;99406.31;123545;1099;104322;-77
2024/01/05 04:07:06;;;;;;;29.50;15.30;;;;;;;5.15;70.32;99402.95;123616;1099;104354;-77
2024/01/05 04:09:38;;;;;;;32.07;15.87;;;;;;;5.18;70.28;99413.48;123554;1099;104344;-77
2024/01/05 04:12:09;;;;;;;31.83;14.50;;;;;;;5.15;70.13;99422.03;123647;1099;104204;-77
2024/01/05 04:14:40;;;;;;;29.43;14.47;;;;;;;5.13;70.21;99426.30;123581;1099;104408;-78
2024/01/05 04:17:12;;;;;;;28.63;14.73;;;;;;;5.10;70.53;99426.17;123594;1099;104396;-77
2024/01/05 04:19:43;;;;;;;39.60;16.73;;;;;;;5.13;70.34;99435.83;123572;1099;104336;-77
2024/01/05 04:22:14;;;;;;;34.77;16.57;;;;;;;5.11;70.56;99438.36;123645;1099;104271;-77
2024/01/05 04:24:45;;;;;;;32.47;17.20;;;;;;;5.11;70.33;99448.77;123666;1099;104268;-77
2024/01/05 04:27:17;;;;;;;32.00;17.07;;;;;;;5.13;70.47;99443.63;123591;1099;104236;-77
2024/01/05 04:29:48;;;;;;;33.10;16.45;;;;;;;5.16;70.66;99443.75;123610;1099;104332;-77
2024/01/05 04:32:19;;;;;;;33.53;17.23;;;;;;;5.18;70.55;99448.16;123708;1099;104281;-77
2024/01/05 04:34:50;;;;;;;29.40;16.03;;;;;;;5.19;70.67;99452.55;123565;1099;104222;-78
2024/01/05 04:37:21;;;;;;;32.45;16.60;;;;;;;5.23;71.04;99456.16;123616;1099;104364;-77
2024/01/05 04:39:53;;;;;;;33.93;16.50;;;;;;;5.27;71.09;99455.47;123552;1098;104396;-78
2024/01/05 04:42:26;;;;;;;31.70;16.67;;;;;;;5.27;70.75;99450.26;123589;1099;104347;-77
2024/01/05 04:44:58;;;;;;;29.57;16.03;;;;;;;5.31;70.92;99459.06;123766;1098;104354;-78
2024/01/05 04:47:29;;;;;;;32.03;16.77;;;;;;;5.32;70.75;99464.33;123689;1099;104283;-78
2024/01/05 04:50:00;;;;;;;31.17;16.13;;;;;;;5.31;70.85;99464.27;123344;1099;104286;-78
2024/01/05 04:52:34;;;;;;;31.57;17.13;;;;;;;5.31;71.39;99466.87;123290;1099;104321;-77
2024/01/05 04:55:06;;;;;;;32.80;17.42;;;;;;;5.30;70.91;99472.88;123663;1099;104245;-77
2024/01/05 04:57:37;;;;;;;32.57;18.47;;;;;;;5.29;71.05;99471.12;123632;1099;104350;-77
2024/01/05 05:00:11;;;;;;;40.00;20.33;;;;;;;5.29;70.79;99472.01;123578;1099;104271;-77
2024/01/05 05:02:42;;;;;;;37.63;20.77;;;;;;;5.27;71.17;99475.39;123665;1099;104236;-77
2024/01/05 05:05:14;;;;;;;39.13;22.27;;;;;;;5.25;71.12;99485.73;123633;1099;104283;-77
2024/01/05 05:07:46;;;;;;;40.47;22.80;;;;;;;5.25;70.84;99487.42;123599;1099;104383;-77
2024/01/05 05:10:17;;;;;;;41.97;23.37;;;;;;;5.22;70.91;99491.69;123690;1099;104272;-77
2024/01/05 05:12:48;;;;;;;38.30;22.67;;;;;;;5.25;71.22;99497.83;123695;1099;104293;-77
2024/01/05 05:15:19;;;;;;;42.87;23.10;;;;;;;5.19;71.27;99501.09;123711;1099;104319;-77
2024/01/05 05:17:52;;;;;;;37.67;22.53;;;;;;;5.20;71.27;99501.16;123617;1099;104335;-77
2024/01/05 05:20:24;;;;;;;41.70;23.27;;;;;;;5.21;71.20;99502.91;123628;1099;104271;-77
2024/01/05 05:22:55;;;;;;;46.63;25.70;;;;;;;5.21;71.22;99507.23;123651;1099;104274;-78
2024/01/05 05:25:26;;;;;;;46.63;24.73;;;;;;;5.21;71.22;99510.70;123901;1099;104249;-78
2024/01/05 05:27:57;;;;;;;49.77;25.17;;;;;;;5.22;71.35;99515.09;123662;1099;104749;-78
2024/01/05 05:30:29;;;;;;;47.73;26.20;;;;;;;5.24;71.22;99520.36;123724;1099;104325;-78
2024/01/05 05:33:00;;;;;;;48.85;24.85;;;;;;;5.27;71.40;99525.70;123651;1098;104393;-77
2024/01/05 05:35:31;;;;;;;43.70;23.77;;;;;;;5.30;71.61;99530.11;123503;1099;104386;-77
2024/01/05 05:38:03;;;;;;;42.13;24.73;;;;;;;5.33;71.18;99528.55;123625;1099;104323;-77
2024/01/05 05:40:34;;;;;;;45.50;25.97;;;;;;;5.36;71.54;99526.08;123923;1099;104241;-77
2024/01/05 05:43:06;;;;;;;45.30;25.05;;;;;;;5.36;71.08;99532.97;123815;1099;104219;-78
2024/01/05 05:45:37;;;;;;;43.77;23.97;;;;;;;5.36;71.40;99533.88;123744;1099;104345;-77
2024/01/05 05:48:09;;;;;;;45.40;25.23;;;;;;;5.35;71.73;99537.30;123918;1099;104271;-77
2024/01/05 05:50:40;;;;;;;43.73;24.37;;;;;;;5.31;71.51;99547.51;124111;1099;104271;-77
2024/01/05 05:53:11;;;;;;;43.27;23.60;;;;;;;5.31;71.34;99545.78;123883;1099;104264;-77
2024/01/05 05:55:42;;;;;;;41.33;24.00;;;;;;;5.36;71.61;99548.58;124009;1099;104286;-78
2024/01/05 05:58:13;;;;;;;43.13;23.17;;;;;;;5.40;71.77;99551.37;124028;1099;107071;-77
2024/01/05 06:00:45;;;;;;;43.57;22.00;;;;;;;5.43;71.97;99554.94;124273;1099;104245;-77
2024/01/05 06:03:16;;;;;;;45.93;24.13;;;;;;;5.46;71.84;99560.27;124116;1099;104312;-77
2024/01/05 06:05:47;;;;;;;37.73;19.97;;;;;;;5.42;71.90;99561.84;124395;1099;104271;-78
2024/01/05 06:08:18;;;;;;;39.20;21.17;;;;;;;5.43;71.55;99561.02;124161;1099;119520;-78
2024/01/05 06:10:50;;;;;;;34.37;19.77;;;;;;;5.47;72.02;99564.63;124149;1099;104373;-77
2024/01/05 06:13:21;;;;;;;38.10;21.23;;;;;;;5.45;71.64;99571.50;124049;1099;104241;-78
2024/01/05 06:15:52;;;;;;;38.93;22.70;;;;;;;5.37;71.53;99591.98;124147;1099;104353;-77
2024/01/05 06:18:23;;;;;;;42.73;26.50;;;;;;;5.19;71.63;99605.13;124151;1099;104369;-78
2024/01/05 06:20:54;;;;;;;53.20;34.73;;;;;;;4.97;72.04;99643.20;124320;1099;104319;-78
2024/01/05 06:23:29;;;;;;;59.50;35.05;;;;;;;4.63;72.80;99719.63;124132;1099;104172;-78
2024/01/05 06:26:00;;;;;;;51.37;26.27;;;;;;;4.31;71.69;99689.52;124365;1099;104657;-78
2024/01/05 06:28:31;;;;;;;58.63;22.90;;;;;;;4.24;72.17;99708.22;124497;1099;105531;-79
2024/01/05 06:31:02;;;;;;;53.67;23.20;;;;;;;4.20;71.82;99714.98;124319;1099;104229;-78
2024/01/05 06:33:34;;;;;;;52.17;22.33;;;;;;;4.22;71.28;99705.55;124464;1099;104274;-77
2024/01/05 06:36:07;;;;;;;43.23;18.93;;;;;;;4.31;71.82;99707.70;124510;1099;104242;-78
2024/01/05 06:38:38;;;;;;;39.23;17.20;;;;;;;4.42;72.02;99713.41;124554;1098;102692;-78
2024/01/05 06:41:09;;;;;;;34.53;15.73;;;;;;;4.51;72.48;99713.86;124511;1099;104179;-78
2024/01/05 06:43:41;;;;;;;30.47;14.73;;;;;;;4.58;72.04;99717.63;124760;1099;104245;-78
2024/01/05 06:46:12;;;;;;;27.00;12.97;;;;;;;4.60;72.16;99723.80;124723;1099;104316;-77
2024/01/05 06:48:43;;;;;;;25.77;12.00;;;;;;;4.56;73.29;99733.14;124642;1099;104251;-77
2024/01/05 06:51:15;;;;;;;28.00;13.97;;;;;;;4.52;72.84;99730.33;124774;1099;104252;-77
2024/01/05 06:53:46;;;;;;;24.63;12.97;;;;;;;4.51;72.59;99734.64;124996;1099;104188;-77
2024/01/05 06:56:18;;;;;;;22.60;11.17;;;;;;;4.57;72.80;99732.33;124511;1099;102731;-76
2024/01/05 06:58:56;;;;;;;23.47;10.80;;;;;;;4.67;73.58;99741.44;124718;1099;103346;-78
2024/01/05 07:01:27;;;;;;;23.20;11.05;;;;;;;4.72;73.73;99754.66;124727;1099;104159;-77
2024/01/05 07:03:58;;;;;;;24.05;11.05;;;;;;;4.76;73.25;99762.67;124945;1099;104290;-77
2024/01/05 07:06:32;;;;;;;25.93;11.63;;;;;;;4.81;73.37;99766.37;124635;1099;104351;-76
2024/01/05 07:09:04;;;;;;;22.80;10.58;;;;;;;4.87;73.45;99765.77;124572;1099;104344;-78
2024/01/05 07:11:35;;;;;;;21.63;9.90;;;;;;;4.94;73.59;99769.54;124702;1099;102330;-76
2024/01/05 07:14:06;;;;;;;23.97;10.37;;;;;;;4.99;74.00;99766.34;124577;1099;104634;-77
2024/01/05 07:16:37;;;;;;;23.60;10.93;;;;;;;5.11;73.95;99767.72;124707;1099;104181;-77
2024/01/05 07:19:09;;;;;;;22.70;9.77;;;;;;;5.24;73.83;99777.88;124578;1099;104223;-78
2024/01/05 07:21:43;;;;;;;22.57;9.50;;;;;;;5.29;74.01;99778.96;124794;1099;104258;-77
2024/01/05 07:24:18;;;;;;;19.87;9.23;;;;;;;5.35;74.12;99771.44;124753;1099;104230;-77
2024/01/05 07:26:50;;;;;;;23.97;9.87;;;;;;;5.42;73.82;99782.12;124686;1098;104370;-77
2024/01/05 07:29:21;;;;;;;24.23;10.17;;;;;;;5.45;73.99;99787.46;124872;1099;104171;-76
2024/01/05 07:31:55;;;;;;;19.80;9.40;;;;;;;5.51;74.39;99798.14;124786;1099;104168;-77
2024/01/05 07:34:26;;;;;;;20.62;9.15;;;;;;;5.56;74.90;99794.02;124363;1099;104367;-80
2024/01/05 07:36:57;;;;;;;20.30;8.80;;;;;;;5.66;74.33;99796.22;124663;1099;104261;-78
2024/01/05 07:39:29;;;;;;;18.40;8.70;;;;;;;5.75;74.70;99796.63;124657;1098;104322;-77
2024/01/05 07:42:03;;;;;;;19.40;8.33;;;;;;;5.88;74.57;99797.16;124543;1099;104267;-79
2024/01/05 07:44:34;;;;;;;19.45;8.33;;;;;;;6.08;74.93;99806.74;124570;1099;104421;-77
2024/01/05 07:47:06;;;;;;;19.20;8.30;;;;;;;6.18;74.98;99818.44;124840;1099;102403;-78
2024/01/05 07:49:37;;;;;;;19.90;8.03;;;;;;;6.28;75.01;99843.19;124829;1099;104271;-79
2024/01/05 07:52:09;;;;;;;18.37;8.10;;;;;;;6.35;75.24;99854.75;124572;1099;104268;-78
2024/01/05 07:54:43;;;;;;;19.77;7.87;;;;;;;6.40;75.17;99848.88;124867;1099;104303;-78
2024/01/05 07:57:14;;;;;;;18.60;7.93;;;;;;;6.52;75.22;99847.64;124831;1098;104271;-78
2024/01/05 07:59:46;;;;;;;20.47;8.40;;;;;;;6.58;75.56;99848.77;124824;1099;104248;-78
2024/01/05 08:02:18;;;;;;;19.93;8.57;;;;;;;6.57;75.19;99860.02;124816;1099;104242;-79
2024/01/05 08:04:49;;;;;;;18.73;8.93;;;;;;;6.58;75.37;99860.92;124725;1099;104239;-79
2024/01/05 08:07:21;;;;;;;18.27;8.00;;;;;;;6.58;75.12;99864.41;124776;1098;104255;-78
2024/01/05 08:10:02;;;;;;;20.00;8.03;;;;;;;6.63;75.18;99875.03;124871;1099;104165;-79
2024/01/05 08:12:33;;;;;;;17.83;7.67;;;;;;;6.64;75.68;99882.91;124894;1099;104409;-77
2024/01/05 08:15:06;;;;;;;16.67;7.00;;;;;;;6.64;75.46;99889.86;124590;1099;104348;-77
2024/01/05 08:17:40;;;;;;;15.97;6.87;;;;;;;6.64;75.39;99890.73;124716;1099;104289;-79
2024/01/05 08:20:12;;;;;;;14.45;6.80;;;;;;;6.66;74.85;99883.86;124805;1099;104249;-78
2024/01/05 08:22:47;;;;;;;15.33;6.70;;;;;;;6.73;74.98;99900.67;124819;1098;104209;-79
2024/01/05 08:25:18;;;;;;;14.83;6.73;;;;;;;6.78;74.97;99908.69;124976;1099;104271;-78
2024/01/05 08:27:51;;;;;;;16.57;6.40;;;;;;;6.78;75.06;99911.30;124850;1099;103437;-79
2024/01/05 08:30:22;;;;;;;14.67;6.47;;;;;;;6.80;75.03;99913.11;124749;1099;104230;-78
2024/01/05 08:32:55;;;;;;;13.37;6.07;;;;;;;6.86;74.86;99901.14;124642;1099;104223;-78
2024/01/05 08:35:26;;;;;;;17.57;6.73;;;;;;;6.92;74.47;99901.39;124809;1099;104258;-78
2024/01/05 08:37:57;;;;;;;16.67;6.80;;;;;;;7.02;74.52;99920.09;124681;1099;102178;-78
2024/01/05 08:40:31;;;;;;;15.57;6.33;;;;;;;7.08;74.47;99919.47;124700;1099;103613;-78
2024/01/05 08:43:03;;;;;;;15.40;6.70;;;;;;;7.11;74.08;99919.59;124963;1099;104269;-79
2024/01/05 08:45:36;;;;;;;16.07;5.80;;;;;;;7.11;74.25;99922.20;124745;1099;104240;-79
2024/01/05 08:48:08;;;;;;;11.80;5.10;;;;;;;7.14;74.31;99932.76;124871;1099;104229;-78
2024/01/05 08:50:40;;;;;;;9.97;4.30;;;;;;;7.19;74.17;99932.94;124843;1099;102201;-78
2024/01/05 08:53:11;;;;;;;10.97;4.40;;;;;;;7.20;73.53;99934.73;124976;1099;104351;-78
2024/01/05 08:55:42;;;;;;;8.37;3.60;;;;;;;7.22;73.59;99934.80;124536;1098;104287;-77
2024/01/05 08:58:14;;;;;;;7.80;3.70;;;;;;;7.24;73.32;99935.73;124983;1099;104245;-80
2024/01/05 09:00:46;;;;;;;8.57;3.40;;;;;;;7.27;72.17;99941.95;124642;1099;104325;-79
2024/01/05 09:03:19;;;;;;;7.60;3.40;;;;;;;7.30;73.28;99933.37;124673;1099;104316;-78
2024/01/05 09:05:51;;;;;;;6.25;3.25;;;;;;;7.33;73.47;99933.50;124608;1099;104274;-78
2024/01/05 09:08:23;;;;;;;10.67;3.23;;;;;;;7.32;72.33;99950.89;124773;1099;104182;-78
2024/01/05 09:10:55;;;;;;;6.03;3.30;;;;;;;7.35;72.86;99947.48;125650;1098;104315;-78
2024/01/05 09:13:26;;;;;;;6.33;3.20;;;;;;;7.35;72.92;99952.70;124988;1099;104274;-79
2024/01/05 09:15:57;;;;;;;7.60;3.10;;;;;;;7.31;72.11;99932.55;125019;1098;104242;-79
2024/01/05 09:18:51;;;;;;;10.73;4.10;;;;;;;7.27;72.00;99943.69;124566;1099;104262;-79
2024/01/05 09:21:26;;;;;;;7.10;2.93;;;;;;;7.30;71.75;99942.08;125332;1099;104325;-78
2024/01/05 09:23:58;;;;;;;6.97;3.13;;;;;;;7.31;71.84;99937.78;124783;1099;104223;-79
2024/01/05 09:26:30;;;;;;;8.60;3.30;;;;;;;7.41;71.42;99939.02;124724;1099;104251;-78
2024/01/05 09:29:04;;;;;;;7.40;3.30;;;;;;;7.54;71.40;99936.04;124760;1099;103597;-78
2024/01/05 09:31:36;;;;;;;9.48;3.72;;;;;;;7.65;71.12;99939.98;124738;1099;104351;-79
2024/01/05 09:34:13;;;;;;;10.07;3.60;;;;;;;7.78;71.76;99935.22;124971;1098;104159;-78
2024/01/05 09:36:45;;;;;;;7.53;3.30;;;;;;;7.88;71.60;99937.33;124709;1099;104267;-78
2024/01/05 09:39:16;;;;;;;9.97;3.43;;;;;;;7.97;69.87;99935.06;124697;1099;102053;-78
2024/01/05 09:41:51;;;;;;;8.00;3.10;;;;;;;8.01;69.94;99928.22;125028;1099;104267;-77
2024/01/05 09:44:21;;;;;;;;;;;;;;;8.06;69.15;99927.56;124999;1099;102524;-77
2024/01/05 09:46:52;;;;;;;6.67;3.10;;;;;;;8.17;69.73;99929.69;124580;1099;104290;-78
2024/01/05 09:49:26;;;;;;;6.97;2.97;;;;;;;8.19;69.13;99947.19;124641;1098;104248;-77
2024/01/05 09:51:58;;;;;;;4.47;2.73;;;;;;;8.19;67.95;99934.12;124624;1099;104232;-77
2024/01/05 09:54:31;;;;;;;5.47;2.83;;;;;;;8.21;68.56;99924.63;124646;1099;104274;-77
2024/01/05 09:57:03;;;;;;;4.05;2.50;;;;;;;8.28;67.45;99937.06;124816;1099;104340;-78
2024/01/05 09:59:35;;;;;;;6.77;2.73;;;;;;;8.33;67.50;99937.23;124711;1098;104307;-78
2024/01/05 10:02:14;;;;;;;7.33;3.20;;;;;;;8.39;66.96;99944.41;124618;1099;104663;-77
2024/01/05 10:04:55;;;;;;;5.17;2.77;;;;;;;8.42;66.45;99937.55;125213;1099;104201;-76
2024/01/05 10:07:30;;;;;;;6.43;2.73;;;;;;;8.42;64.79;99949.75;125202;1097;104204;-78
2024/01/05 10:10:03;;;;;;;5.47;2.63;;;;;;;8.43;65.99;99952.45;124864;1099;104220;-77
2024/01/05 10:12:35;;;;;;;6.10;2.50;;;;;;;8.47;65.40;99960.41;126905;1099;103175;-78
2024/01/05 10:15:08;;;;;;;11.73;2.85;;;;;;;8.52;66.70;99964.06;117424;1099;10000955;-77
2024/01/05 10:17:40;;;;;;;7.42;2.42;;;;;;;8.57;64.50;99954.64;124424;1099;104245;-78
2024/01/05 10:20:17;;;;;;;5.90;2.50;;;;;;;8.57;63.91;99950.33;124843;1099;104485;-79
2024/01/05 10:22:48;;;;;;;7.43;2.70;;;;;;;8.59;64.43;99946.02;124497;1099;104331;-79
2024/01/05 10:25:21;;;;;;;8.00;2.67;;;;;;;8.63;63.94;99947.02;125018;1099;104223;-79
2024/01/05 10:27:56;;;;;;;4.13;2.20;;;;;;;8.63;63.04;99953.16;126046;1098;104248;-76
2024/01/05 10:30:30;;;;;;;10.80;2.70;;;;;;;8.63;62.15;99952.24;124894;1099;104306;-77
2024/01/05 10:33:07;;;;;;;;;;;;;;;8.63;62.90;99966.23;124897;1099;104223;-76
2024/01/05 10:35:38;;;;;;;4.97;2.53;;;;;;;8.70;63.86;99962.09;124847;1099;104172;-77
2024/01/05 10:38:14;;;;;;;9.90;2.73;;;;;;;8.74;63.65;99963.08;124898;1098;104272;-77
2024/01/05 10:40:46;;;;;;;10.80;2.80;;;;;;;8.84;63.88;99967.80;124835;1099;102142;-76
2024/01/05 10:43:19;;;;;;;6.17;2.87;;;;;;;8.94;63.43;99967.28;125049;1099;104315;-78
2024/01/05 10:45:51;;;;;;;6.77;2.60;;;;;;;9.00;62.38;99966.58;124639;1099;104272;-78
2024/01/05 10:48:26;;;;;;;8.50;2.90;;;;;;;9.11;62.41;99982.64;125084;1099;104235;-77
2024/01/05 10:50:59;;;;;;;10.10;3.17;;;;;;;9.22;62.13;99983.88;124915;1099;101899;-78
2024/01/05 10:53:38;;;;;;;7.40;3.27;;;;;;;9.28;61.39;99984.08;124937;1099;104220;-80
2024/01/05 10:56:15;;;;;;;8.90;2.53;;;;;;;9.22;59.85;99994.35;124860;1099;104272;-78
2024/01/05 10:58:56;;;;;;;8.23;2.80;;;;;;;9.14;60.23;99999.33;124662;1099;104184;-78
2024/01/05 11:01:29;;;;;;;7.90;2.90;;;;;;;9.05;60.22;100005.99;124927;1099;104248;-78
2024/01/05 11:04:04;;;;;;;6.90;2.67;;;;;;;9.00;60.34;100014.56;124686;1099;103211;-76
2024/01/05 11:06:38;;;;;;;8.37;2.83;;;;;;;8.97;60.04;100013.58;124989;1099;104261;-77
2024/01/05 11:09:21;;;;;;;5.05;2.50;;;;;;;8.96;59.37;100017.02;124446;1099;103631;-77
2024/01/05 11:12:03;;;;;;;6.35;2.52;;;;;;;8.90;59.19;100009.00;124759;1099;104278;-78
2024/01/05 11:14:55;;;;;;;7.40;2.67;;;;;;;8.85;58.26;100026.23;124851;1099;103224;-78
2024/01/05 11:17:56;;;;;;;7.25;2.60;;;;;;;8.78;58.46;100044.34;124940;1099;104201;-77
2024/01/05 11:20:49;;;;;;;6.47;2.67;;;;;;;8.72;58.72;100044.11;125088;1099;104322;-77
2024/01/05 11:23:23;;;;;;;6.10;3.00;;;;;;;8.68;59.19;100044.86;124643;1099;104326;-78
2024/01/05 11:25:55;;;;;;;8.38;2.62;;;;;;;8.72;60.01;100046.73;125150;1099;102569;-77
2024/01/05 11:28:39;;;;;;;10.83;3.27;;;;;;;8.83;59.71;100044.50;124979;1099;104178;-77
2024/01/05 11:31:17;;;;;;;8.27;2.80;;;;;;;8.90;59.77;100045.62;125125;1099;104204;-78
2024/01/05 11:33:50;;;;;;;11.67;3.07;;;;;;;8.95;59.62;100055.40;124855;1099;104226;-77
2024/01/05 11:36:56;;;;;;;7.97;3.00;;;;;;;8.97;59.79;100053.72;124808;1099;104389;-77
2024/01/05 11:39:58;;;;;;;6.50;3.20;;;;;;;8.96;59.53;100062.42;124455;1102;104287;-78